< < Back
Terminal Aerodrome Forecast


Current Version              Previous Versions:   1  2  3  4  5  6  7  8  9  

Terminal Aerodrome Forecast

994
FTUS42 KTAE 202300
TAFTLH
TAF
KTLH 202336Z 2100/2124 17003KT P6SM FEW045 BKN250
     FM210300 00000KT P6SM BKN250
     FM211800 34005KT P6SM SCT050 SCT250=

Latest METAR

594
SAUS80 KWBC 211500 RRB
MTRTLH
METAR KTLH 211453Z 03004KT 10SM FEW250 24/13 A3002 RMK AO2 SLP163
T02390133 50011


USA.gov is the U.S. government's official web portal to all federal, state and local government web resources and services.